sensor_id;sensor_type;location;lat;lon;timestamp;pressure;altitude;pressure_sealevel;temperature;humidity
73341;BME280;61578;52.002;5.468;2022-09-30T00:00:09;100788.34;;;6.74;88.32
73341;BME280;61578;52.002;5.468;2022-09-30T00:00:40;100777.94;;;6.71;88.79
73341;BME280;61578;52.002;5.468;2022-09-30T00:01:11;100792.53;;;6.78;88.45
73341;BME280;61578;52.002;5.468;2022-09-30T00:01:42;100782.91;;;6.77;88.52
73341;BME280;61578;52.002;5.468;2022-09-30T00:02:14;100780.66;;;6.69;88.87
73341;BME280;61578;52.002;5.468;2022-09-30T00:02:44;100765.13;;;6.63;88.69
73341;BME280;61578;52.002;5.468;2022-09-30T00:03:15;100767.84;;;6.61;88.38
73341;BME280;61578;52.002;5.468;2022-09-30T00:03:47;100799.06;;;6.71;88.89
73341;BME280;61578;52.002;5.468;2022-09-30T00:04:21;100793.84;;;6.69;88.41
73341;BME280;61578;52.002;5.468;2022-09-30T00:04:53;100789.38;;;6.71;88.66
73341;BME280;61578;52.002;5.468;2022-09-30T00:05:24;100766.41;;;6.54;88.38
73341;BME280;61578;52.002;5.468;2022-09-30T00:06:00;100780.19;;;6.61;88.32
73341;BME280;61578;52.002;5.468;2022-09-30T00:06:33;100794.78;;;6.68;88.01
73341;BME280;61578;52.002;5.468;2022-09-30T00:07:06;100783.44;;;6.66;88.16
73341;BME280;61578;52.002;5.468;2022-09-30T00:07:37;100764.78;;;6.52;88.05
73341;BME280;61578;52.002;5.468;2022-09-30T00:08:07;100751.34;;;6.39;87.68
73341;BME280;61578;52.002;5.468;2022-09-30T00:08:38;100797.69;;;6.62;87.73
73341;BME280;61578;52.002;5.468;2022-09-30T00:09:10;100732.56;;;6.28;88.08
73341;BME280;61578;52.002;5.468;2022-09-30T00:09:42;100800.50;;;6.59;88.52
73341;BME280;61578;52.002;5.468;2022-09-30T00:10:12;100772.88;;;6.49;88.51
73341;BME280;61578;52.002;5.468;2022-09-30T00:10:44;100754.06;;;6.38;88.56
73341;BME280;61578;52.002;5.468;2022-09-30T00:11:17;100761.56;;;6.28;88.09
73341;BME280;61578;52.002;5.468;2022-09-30T00:11:51;100775.44;;;6.50;88.26
73341;BME280;61578;52.002;5.468;2022-09-30T00:12:21;100781.84;;;6.45;88.12
73341;BME280;61578;52.002;5.468;2022-09-30T00:12:52;100798.94;;;6.55;87.98
73341;BME280;61578;52.002;5.468;2022-09-30T00:13:23;100769.88;;;6.38;87.88
73341;BME280;61578;52.002;5.468;2022-09-30T00:13:55;100794.66;;;6.52;87.93
73341;BME280;61578;52.002;5.468;2022-09-30T00:14:27;100778.84;;;6.34;88.11
73341;BME280;61578;52.002;5.468;2022-09-30T00:14:59;100790.53;;;6.47;87.77
73341;BME280;61578;52.002;5.468;2022-09-30T00:15:30;100797.53;;;6.48;87.99
73341;BME280;61578;52.002;5.468;2022-09-30T00:16:02;100800.31;;;6.45;88.46
73341;BME280;61578;52.002;5.468;2022-09-30T00:16:35;100797.59;;;6.46;88.22
73341;BME280;61578;52.002;5.468;2022-09-30T00:17:06;100767.63;;;6.30;88.14
73341;BME280;61578;52.002;5.468;2022-09-30T00:17:37;100775.44;;;6.32;88.40
73341;BME280;61578;52.002;5.468;2022-09-30T00:18:08;100798.59;;;6.44;88.60
73341;BME280;61578;52.002;5.468;2022-09-30T00:18:40;100789.19;;;6.38;88.69
73341;BME280;61578;52.002;5.468;2022-09-30T00:19:13;100766.91;;;6.26;88.07
73341;BME280;61578;52.002;5.468;2022-09-30T00:19:44;100789.25;;;6.37;88.44
73341;BME280;61578;52.002;5.468;2022-09-30T00:20:16;100801.16;;;6.45;88.68
73341;BME280;61578;52.002;5.468;2022-09-30T00:20:48;100782.94;;;6.41;88.35
73341;BME280;61578;52.002;5.468;2022-09-30T00:21:19;100788.09;;;6.42;88.93
73341;BME280;61578;52.002;5.468;2022-09-30T00:21:50;100804.50;;;6.49;88.17
73341;BME280;61578;52.002;5.468;2022-09-30T00:22:20;100801.03;;;6.48;88.28
73341;BME280;61578;52.002;5.468;2022-09-30T00:22:51;100780.50;;;6.36;88.30
73341;BME280;61578;52.002;5.468;2022-09-30T00:23:23;100777.00;;;6.36;88.12
73341;BME280;61578;52.002;5.468;2022-09-30T00:23:55;100798.75;;;6.41;88.37
73341;BME280;61578;52.002;5.468;2022-09-30T00:24:26;100785.72;;;6.38;88.04
73341;BME280;61578;52.002;5.468;2022-09-30T00:24:57;100776.16;;;6.35;88.37
73341;BME280;61578;52.002;5.468;2022-09-30T00:25:27;100781.28;;;6.38;88.23
73341;BME280;61578;52.002;5.468;2022-09-30T00:26:00;100802.94;;;6.45;88.55
73341;BME280;61578;52.002;5.468;2022-09-30T00:26:34;100768.63;;;6.27;88.72
73341;BME280;61578;52.002;5.468;2022-09-30T00:27:05;100786.41;;;6.41;88.62
73341;BME280;61578;52.002;5.468;2022-09-30T00:27:36;100742.03;;;6.13;87.95
73341;BME280;61578;52.002;5.468;2022-09-30T00:28:07;100783.84;;;6.40;88.28
73341;BME280;61578;52.002;5.468;2022-09-30T00:28:39;100743.69;;;6.16;88.41
73341;BME280;61578;52.002;5.468;2022-09-30T00:29:11;100795.88;;;6.45;88.00
73341;BME280;61578;52.002;5.468;2022-09-30T00:29:41;100790.69;;;6.44;88.24
73341;BME280;61578;52.002;5.468;2022-09-30T00:30:12;100790.69;;;6.44;88.40
73341;BME280;61578;52.002;5.468;2022-09-30T00:30:43;100782.22;;;6.37;88.56
73341;BME280;61578;52.002;5.468;2022-09-30T00:31:15;100761.63;;;6.26;88.73
73341;BME280;61578;52.002;5.468;2022-09-30T00:31:46;100779.72;;;6.34;88.16
73341;BME280;61578;52.002;5.468;2022-09-30T00:32:18;100748.09;;;6.15;88.57
73341;BME280;61578;52.002;5.468;2022-09-30T00:32:49;100792.47;;;6.43;88.04
73341;BME280;61578;52.002;5.468;2022-09-30T00:33:19;100763.06;;;6.15;87.97
73341;BME280;61578;52.002;5.468;2022-09-30T00:33:51;100781.44;;;6.35;87.83
73341;BME280;61578;52.002;5.468;2022-09-30T00:34:37;100796.88;;;6.43;88.33
73341;BME280;61578;52.002;5.468;2022-09-30T00:35:07;100739.63;;;6.09;88.49
73341;BME280;61578;52.002;5.468;2022-09-30T00:35:38;100796.94;;;6.41;88.27
73341;BME280;61578;52.002;5.468;2022-09-30T00:36:10;100776.44;;;6.29;88.27
73341;BME280;61578;52.002;5.468;2022-09-30T00:36:47;100794.41;;;6.40;88.22
73341;BME280;61578;52.002;5.468;2022-09-30T00:37:19;100785.97;;;6.32;87.78
73341;BME280;61578;52.002;5.468;2022-09-30T00:37:50;100798.03;;;6.37;87.79
73341;BME280;61578;52.002;5.468;2022-09-30T00:38:20;100796.38;;;6.35;87.98
73341;BME280;61578;52.002;5.468;2022-09-30T00:38:51;100791.97;;;6.35;87.72
73341;BME280;61578;52.002;5.468;2022-09-30T00:39:26;100778.66;;;6.19;88.16
73341;BME280;61578;52.002;5.468;2022-09-30T00:39:58;100703.19;;;5.61;88.04
73341;BME280;61578;52.002;5.468;2022-09-30T00:40:29;100807.94;;;6.32;88.08
73341;BME280;61578;52.002;5.468;2022-09-30T00:41:01;100800.88;;;6.33;88.20
73341;BME280;61578;52.002;5.468;2022-09-30T00:41:33;100805.22;;;6.34;88.84
73341;BME280;61578;52.002;5.468;2022-09-30T00:42:10;100755.53;;;6.07;88.47
73341;BME280;61578;52.002;5.468;2022-09-30T00:42:43;100794.59;;;6.35;88.55
73341;BME280;61578;52.002;5.468;2022-09-30T00:43:19;100806.00;;;6.36;88.79
73341;BME280;61578;52.002;5.468;2022-09-30T00:44:42;100802.53;;;6.35;88.55
73341;BME280;61578;52.002;5.468;2022-09-30T00:45:15;100751.09;;;6.08;88.49
73341;BME280;61578;52.002;5.468;2022-09-30T00:45:56;100779.28;;;6.24;88.25
73341;BME280;61578;52.002;5.468;2022-09-30T00:46:39;100780.72;;;6.13;88.73
73341;BME280;61578;52.002;5.468;2022-09-30T00:48:32;100758.66;;;6.15;89.00
73341;BME280;61578;52.002;5.468;2022-09-30T00:49:15;100749.31;;;6.08;88.65
73341;BME280;61578;52.002;5.468;2022-09-30T00:49:50;100806.81;;;6.38;88.92
73341;BME280;61578;52.002;5.468;2022-09-30T00:50:41;100795.41;;;6.37;88.97
73341;BME280;61578;52.002;5.468;2022-09-30T00:51:17;100792.91;;;6.34;88.33
73341;BME280;61578;52.002;5.468;2022-09-30T00:51:54;100765.63;;;6.16;88.43
73341;BME280;61578;52.002;5.468;2022-09-30T00:52:27;100769.06;;;6.18;88.15
73341;BME280;61578;52.002;5.468;2022-09-30T00:53:07;100800.75;;;6.36;88.39
73341;BME280;61578;52.002;5.468;2022-09-30T00:54:11;100796.31;;;6.36;88.53
73341;BME280;61578;52.002;5.468;2022-09-30T00:54:46;100802.53;;;6.35;88.28
73341;BME280;61578;52.002;5.468;2022-09-30T00:55:26;100791.41;;;6.28;88.55
73341;BME280;61578;52.002;5.468;2022-09-30T00:56:10;100784.63;;;6.23;88.63
73341;BME280;61578;52.002;5.468;2022-09-30T00:56:52;100800.03;;;6.32;88.95
73341;BME280;61578;52.002;5.468;2022-09-30T00:57:28;100809.63;;;6.33;88.95
73341;BME280;61578;52.002;5.468;2022-09-30T00:58:02;100794.13;;;6.27;88.81
73341;BME280;61578;52.002;5.468;2022-09-30T00:59:43;100812.22;;;6.35;88.36
73341;BME280;61578;52.002;5.468;2022-09-30T01:00:19;100812.34;;;6.32;88.07
73341;BME280;61578;52.002;5.468;2022-09-30T01:00:50;100802.16;;;6.24;88.00
73341;BME280;61578;52.002;5.468;2022-09-30T01:01:21;100803.88;;;6.25;87.98
73341;BME280;61578;52.002;5.468;2022-09-30T01:01:54;100808.94;;;6.30;88.11
73341;BME280;61578;52.002;5.468;2022-09-30T01:02:24;100762.75;;;6.02;88.16
73341;BME280;61578;52.002;5.468;2022-09-30T01:02:56;100811.66;;;6.28;88.38
73341;BME280;61578;52.002;5.468;2022-09-30T01:03:40;100761.16;;;6.00;87.83
73341;BME280;61578;52.002;5.468;2022-09-30T01:04:18;100788.44;;;6.17;87.88
73341;BME280;61578;52.002;5.468;2022-09-30T01:04:52;100790.41;;;6.12;88.21
73341;BME280;61578;52.002;5.468;2022-09-30T01:05:25;100791.00;;;6.19;88.37
73341;BME280;61578;52.002;5.468;2022-09-30T01:05:56;100776.53;;;6.09;88.21
73341;BME280;61578;52.002;5.468;2022-09-30T01:06:28;100817.13;;;6.23;88.17
73341;BME280;61578;52.002;5.468;2022-09-30T01:07:02;100809.22;;;6.23;87.73
73341;BME280;61578;52.002;5.468;2022-09-30T01:07:36;100773.31;;;6.02;87.84
73341;BME280;61578;52.002;5.468;2022-09-30T01:08:07;100804.88;;;6.22;87.94
73341;BME280;61578;52.002;5.468;2022-09-30T01:08:40;100794.75;;;6.13;88.01
73341;BME280;61578;52.002;5.468;2022-09-30T01:09:11;100783.53;;;6.10;87.98
73341;BME280;61578;52.002;5.468;2022-09-30T01:09:43;100804.88;;;6.22;88.05
73341;BME280;61578;52.002;5.468;2022-09-30T01:10:15;100811.84;;;6.23;88.01
73341;BME280;61578;52.002;5.468;2022-09-30T01:10:46;100803.94;;;6.23;88.34
73341;BME280;61578;52.002;5.468;2022-09-30T01:11:17;100805.72;;;6.23;88.23
73341;BME280;61578;52.002;5.468;2022-09-30T01:11:48;100798.13;;;6.17;88.33
73341;BME280;61578;52.002;5.468;2022-09-30T01:12:22;100778.66;;;6.01;88.52
73341;BME280;61578;52.002;5.468;2022-09-30T01:12:56;100811.91;;;6.22;88.45
73341;BME280;61578;52.002;5.468;2022-09-30T01:13:30;100799.09;;;6.14;88.38
73341;BME280;61578;52.002;5.468;2022-09-30T01:14:10;100811.16;;;6.20;87.86
73341;BME280;61578;52.002;5.468;2022-09-30T01:14:47;100812.94;;;6.19;88.23
73341;BME280;61578;52.002;5.468;2022-09-30T01:16:14;100784.50;;;6.07;88.42
73341;BME280;61578;52.002;5.468;2022-09-30T01:18:05;100810.22;;;6.21;88.55
73341;BME280;61578;52.002;5.468;2022-09-30T01:20:35;100814.66;;;6.20;88.44
73341;BME280;61578;52.002;5.468;2022-09-30T01:21:55;100811.06;;;6.21;88.56
73341;BME280;61578;52.002;5.468;2022-09-30T01:32:06;100809.50;;;6.17;87.91
73341;BME280;61578;52.002;5.468;2022-09-30T01:33:23;100802.53;;;6.16;87.83
73341;BME280;61578;52.002;5.468;2022-09-30T01:37:02;100807.06;;;6.13;87.87
73341;BME280;61578;52.002;5.468;2022-09-30T01:39:06;100803.75;;;6.09;87.82
73341;BME280;61578;52.002;5.468;2022-09-30T01:40:06;100783.16;;;5.99;88.36
73341;BME280;61578;52.002;5.468;2022-09-30T01:41:31;100802.81;;;6.10;88.28
73341;BME280;61578;52.002;5.468;2022-09-30T01:42:26;100796.97;;;6.04;88.15
73341;BME280;61578;52.002;5.468;2022-09-30T01:43:13;100783.34;;;5.94;88.06
73341;BME280;61578;52.002;5.468;2022-09-30T01:46:19;100810.88;;;6.07;87.97
73341;BME280;61578;52.002;5.468;2022-09-30T01:47:25;100792.13;;;5.95;88.33
73341;BME280;61578;52.002;5.468;2022-09-30T01:48:11;100804.94;;;6.02;87.97
73341;BME280;61578;52.002;5.468;2022-09-30T01:51:11;100790.78;;;5.84;88.28
73341;BME280;61578;52.002;5.468;2022-09-30T01:53:50;100781.41;;;5.79;88.04
73341;BME280;61578;52.002;5.468;2022-09-30T01:55:57;100768.56;;;5.71;88.20
73341;BME280;61578;52.002;5.468;2022-09-30T01:56:48;100814.19;;;5.92;87.71
73341;BME280;61578;52.002;5.468;2022-09-30T01:57:55;100823.97;;;5.90;87.67
73341;BME280;61578;52.002;5.468;2022-09-30T02:00:03;100813.13;;;5.96;88.04
73341;BME280;61578;52.002;5.468;2022-09-30T02:00:42;100802.19;;;5.85;87.91
73341;BME280;61578;52.002;5.468;2022-09-30T02:01:26;100786.66;;;5.79;87.36
73341;BME280;61578;52.002;5.468;2022-09-30T02:02:12;100813.41;;;5.90;87.97
73341;BME280;61578;52.002;5.468;2022-09-30T02:03:01;100808.25;;;5.87;88.06
73341;BME280;61578;52.002;5.468;2022-09-30T02:03:54;100806.53;;;5.86;88.15
73341;BME280;61578;52.002;5.468;2022-09-30T02:04:46;100775.03;;;5.64;88.16
73341;BME280;61578;52.002;5.468;2022-09-30T02:05:29;100788.63;;;5.74;88.32
73341;BME280;61578;52.002;5.468;2022-09-30T02:06:07;100707.69;;;5.19;88.70
73341;BME280;61578;52.002;5.468;2022-09-30T02:06:50;100805.75;;;5.84;88.52
73341;BME280;61578;52.002;5.468;2022-09-30T02:07:32;100805.63;;;5.87;88.08
73341;BME280;61578;52.002;5.468;2022-09-30T02:08:25;100811.00;;;5.84;88.35
73341;BME280;61578;52.002;5.468;2022-09-30T02:09:12;100780.22;;;5.66;88.25
73341;BME280;61578;52.002;5.468;2022-09-30T02:09:56;100809.09;;;5.87;89.21
73341;BME280;61578;52.002;5.468;2022-09-30T02:10:41;100788.56;;;5.75;89.62
73341;BME280;61578;52.002;5.468;2022-09-30T02:11:25;100810.84;;;5.88;89.10
73341;BME280;61578;52.002;5.468;2022-09-30T02:12:02;100793.72;;;5.78;89.20
73341;BME280;61578;52.002;5.468;2022-09-30T02:12:42;100796.47;;;5.75;88.78
73341;BME280;61578;52.002;5.468;2022-09-30T02:14:41;100773.19;;;5.66;88.26
73341;BME280;61578;52.002;5.468;2022-09-30T02:15:22;100819.66;;;5.87;87.94
73341;BME280;61578;52.002;5.468;2022-09-30T02:16:02;100795.56;;;5.76;88.41
73341;BME280;61578;52.002;5.468;2022-09-30T02:19:15;100803.47;;;5.76;88.10
73341;BME280;61578;52.002;5.468;2022-09-30T02:20:02;100799.97;;;5.76;88.64
73341;BME280;61578;52.002;5.468;2022-09-30T02:20:41;100817.13;;;5.84;88.41
73341;BME280;61578;52.002;5.468;2022-09-30T02:21:19;100818.84;;;5.85;88.67
73341;BME280;61578;52.002;5.468;2022-09-30T02:21:59;100782.19;;;5.61;87.94
73341;BME280;61578;52.002;5.468;2022-09-30T02:22:46;100784.66;;;5.65;88.23
73341;BME280;61578;52.002;5.468;2022-09-30T02:23:30;100817.19;;;5.83;88.48
73341;BME280;61578;52.002;5.468;2022-09-30T02:24:08;100686.41;;;5.05;88.14
73341;BME280;61578;52.002;5.468;2022-09-30T02:24:43;100783.06;;;5.61;87.76
73341;BME280;61578;52.002;5.468;2022-09-30T02:25:27;100818.19;;;5.80;88.22
73341;BME280;61578;52.002;5.468;2022-09-30T02:26:17;100799.47;;;5.68;88.36
73341;BME280;61578;52.002;5.468;2022-09-30T02:26:54;100803.53;;;5.75;88.31
73341;BME280;61578;52.002;5.468;2022-09-30T02:27:37;100817.28;;;5.81;88.06
73341;BME280;61578;52.002;5.468;2022-09-30T02:28:18;100819.84;;;5.83;88.35
73341;BME280;61578;52.002;5.468;2022-09-30T02:29:06;100817.19;;;5.83;88.86
73341;BME280;61578;52.002;5.468;2022-09-30T02:29:53;100813.66;;;5.84;88.13
73341;BME280;61578;52.002;5.468;2022-09-30T02:30:28;100824.19;;;5.84;88.28
73341;BME280;61578;52.002;5.468;2022-09-30T02:31:02;100818.91;;;5.84;88.15
73341;BME280;61578;52.002;5.468;2022-09-30T02:31:39;100815.44;;;5.83;88.18
73341;BME280;61578;52.002;5.468;2022-09-30T02:32:26;100822.41;;;5.84;88.53
73341;BME280;61578;52.002;5.468;2022-09-30T02:33:11;100822.28;;;5.87;89.34
73341;BME280;61578;52.002;5.468;2022-09-30T02:33:57;100796.47;;;5.75;88.96
73341;BME280;61578;52.002;5.468;2022-09-30T02:34:42;100818.00;;;5.85;89.04
73341;BME280;61578;52.002;5.468;2022-09-30T02:35:31;100824.78;;;5.90;88.74
73341;BME280;61578;52.002;5.468;2022-09-30T02:36:30;100804.25;;;5.78;88.91
73341;BME280;61578;52.002;5.468;2022-09-30T02:37:27;100808.38;;;5.84;88.20
73341;BME280;61578;52.002;5.468;2022-09-30T02:38:32;100816.16;;;5.87;88.87
73341;BME280;61578;52.002;5.468;2022-09-30T02:40:46;100812.00;;;5.81;88.38
73341;BME280;61578;52.002;5.468;2022-09-30T02:41:25;100807.00;;;5.75;88.42
73341;BME280;61578;52.002;5.468;2022-09-30T02:42:08;100808.38;;;5.84;88.48
73341;BME280;61578;52.002;5.468;2022-09-30T02:42:44;100815.09;;;5.91;88.46
73341;BME280;61578;52.002;5.468;2022-09-30T02:43:18;100826.59;;;5.90;88.26
73341;BME280;61578;52.002;5.468;2022-09-30T02:43:53;100792.47;;;5.67;88.37
73341;BME280;61578;52.002;5.468;2022-09-30T02:44:25;100820.47;;;5.89;88.62
73341;BME280;61578;52.002;5.468;2022-09-30T02:45:03;100823.88;;;5.91;88.48
73341;BME280;61578;52.002;5.468;2022-09-30T02:48:23;100815.03;;;5.93;88.17
73341;BME280;61578;52.002;5.468;2022-09-30T02:49:23;100798.63;;;5.86;88.31
73341;BME280;61578;52.002;5.468;2022-09-30T02:50:06;100815.91;;;5.93;88.74
73341;BME280;61578;52.002;5.468;2022-09-30T02:51:21;100822.09;;;5.92;88.54
73341;BME280;61578;52.002;5.468;2022-09-30T02:52:59;100822.09;;;5.92;88.23
73341;BME280;61578;52.002;5.468;2022-09-30T02:53:34;100800.59;;;5.81;88.21
73341;BME280;61578;52.002;5.468;2022-09-30T02:55:49;100810.78;;;5.90;88.45
73341;BME280;61578;52.002;5.468;2022-09-30T02:56:50;100809.94;;;5.89;88.34
73341;BME280;61578;52.002;5.468;2022-09-30T02:57:38;100808.97;;;5.90;88.25
73341;BME280;61578;52.002;5.468;2022-09-30T02:58:23;100793.00;;;5.75;88.24
73341;BME280;61578;52.002;5.468;2022-09-30T02:58:58;100794.69;;;5.76;87.88
73341;BME280;61578;52.002;5.468;2022-09-30T02:59:29;100791.28;;;5.74;87.60
73341;BME280;61578;52.002;5.468;2022-09-30T03:00:06;100813.53;;;5.87;88.37
73341;BME280;61578;52.002;5.468;2022-09-30T03:00:37;100794.63;;;5.77;88.88
73341;BME280;61578;52.002;5.468;2022-09-30T03:01:12;100812.66;;;5.86;87.70
73341;BME280;61578;52.002;5.468;2022-09-30T03:01:45;100775.09;;;5.63;88.18
73341;BME280;61578;52.002;5.468;2022-09-30T03:02:15;100822.34;;;5.86;88.19
73341;BME280;61578;52.002;5.468;2022-09-30T03:02:47;100769.19;;;5.58;87.96
73341;BME280;61578;52.002;5.468;2022-09-30T03:03:24;100814.50;;;5.84;87.57
73341;BME280;61578;52.002;5.468;2022-09-30T03:04:05;100761.41;;;5.54;88.03
73341;BME280;61578;52.002;5.468;2022-09-30T03:04:40;100813.59;;;5.85;88.57
73341;BME280;61578;52.002;5.468;2022-09-30T03:05:14;100819.72;;;5.86;87.86
73341;BME280;61578;52.002;5.468;2022-09-30T03:05:48;100752.41;;;5.40;87.87
73341;BME280;61578;52.002;5.468;2022-09-30T03:06:20;100810.16;;;5.83;87.90
73341;BME280;61578;52.002;5.468;2022-09-30T03:06:53;100784.72;;;5.64;88.05
73341;BME280;61578;52.002;5.468;2022-09-30T03:07:24;100819.84;;;5.83;87.89
73341;BME280;61578;52.002;5.468;2022-09-30T03:07:55;100768.28;;;5.59;88.29
73341;BME280;61578;52.002;5.468;2022-09-30T03:08:27;100804.25;;;5.78;88.54
73341;BME280;61578;52.002;5.468;2022-09-30T03:08:57;100801.56;;;5.80;88.59
73341;BME280;61578;52.002;5.468;2022-09-30T03:09:28;100818.78;;;5.87;88.60
73341;BME280;61578;52.002;5.468;2022-09-30T03:09:59;100811.00;;;5.84;88.21
73341;BME280;61578;52.002;5.468;2022-09-30T03:10:30;100805.19;;;5.77;88.75
73341;BME280;61578;52.002;5.468;2022-09-30T03:11:04;100808.66;;;5.78;88.13
73341;BME280;61578;52.002;5.468;2022-09-30T03:11:36;100787.28;;;5.65;88.11
73341;BME280;61578;52.002;5.468;2022-09-30T03:12:18;100822.41;;;5.84;88.07
73341;BME280;61578;52.002;5.468;2022-09-30T03:14:36;100803.59;;;5.73;87.95
73341;BME280;61578;52.002;5.468;2022-09-30T03:15:54;100828.59;;;5.83;88.02
73341;BME280;61578;52.002;5.468;2022-09-30T03:18:15;100818.41;;;5.76;87.96
73341;BME280;61578;52.002;5.468;2022-09-30T03:24:46;100808.28;;;5.67;88.15
73341;BME280;61578;52.002;5.468;2022-09-30T03:26:32;100827.09;;;5.78;88.31
73341;BME280;61578;52.002;5.468;2022-09-30T03:28:13;100776.66;;;5.48;88.99
73341;BME280;61578;52.002;5.468;2022-09-30T03:30:15;100814.34;;;5.69;88.52
73341;BME280;61578;52.002;5.468;2022-09-30T03:31:13;100835.81;;;5.80;87.99
73341;BME280;61578;52.002;5.468;2022-09-30T03:34:43;100832.91;;;5.66;88.09
73341;BME280;61578;52.002;5.468;2022-09-30T03:37:29;100837.97;;;5.70;88.17
73341;BME280;61578;52.002;5.468;2022-09-30T03:39:54;100844.25;;;5.68;88.18
73341;BME280;61578;52.002;5.468;2022-09-30T03:42:46;100837.38;;;5.64;88.02
73341;BME280;61578;52.002;5.468;2022-09-30T03:43:37;100844.31;;;5.66;88.31
73341;BME280;61578;52.002;5.468;2022-09-30T03:45:10;100841.44;;;5.71;87.84
73341;BME280;61578;52.002;5.468;2022-09-30T03:46:06;100833.97;;;5.62;88.00
73341;BME280;61578;52.002;5.468;2022-09-30T03:46:59;100838.31;;;5.63;88.82
73341;BME280;61578;52.002;5.468;2022-09-30T03:47:43;100852.00;;;5.71;88.67
73341;BME280;61578;52.002;5.468;2022-09-30T03:48:18;100830.47;;;5.61;88.71
73341;BME280;61578;52.002;5.468;2022-09-30T03:48:57;100799.78;;;5.40;88.95
73341;BME280;61578;52.002;5.468;2022-09-30T03:49:38;100847.91;;;5.64;88.03
73341;BME280;61578;52.002;5.468;2022-09-30T03:50:19;100858.00;;;5.74;88.53
73341;BME280;61578;52.002;5.468;2022-09-30T03:50:54;100859.69;;;5.75;88.13
73341;BME280;61578;52.002;5.468;2022-09-30T03:51:28;100859.81;;;5.72;88.17
73341;BME280;61578;52.002;5.468;2022-09-30T03:52:05;100862.53;;;5.71;88.01
73341;BME280;61578;52.002;5.468;2022-09-30T03:52:38;100823.03;;;5.50;87.68
73341;BME280;61578;52.002;5.468;2022-09-30T03:53:10;100863.38;;;5.71;88.10
73341;BME280;61578;52.002;5.468;2022-09-30T03:53:43;100828.28;;;5.50;88.06
73341;BME280;61578;52.002;5.468;2022-09-30T03:54:15;100853.84;;;5.69;87.52
73341;BME280;61578;52.002;5.468;2022-09-30T03:54:50;100860.97;;;5.67;87.70
73341;BME280;61578;52.002;5.468;2022-09-30T03:55:24;100866.09;;;5.70;87.89
73341;BME280;61578;52.002;5.468;2022-09-30T03:55:56;100863.47;;;5.70;87.77
73341;BME280;61578;52.002;5.468;2022-09-30T03:56:29;100856.75;;;5.63;87.97
73341;BME280;61578;52.002;5.468;2022-09-30T03:57:00;100842.41;;;5.49;87.76
73341;BME280;61578;52.002;5.468;2022-09-30T03:57:35;100824.97;;;5.47;88.13
73341;BME280;61578;52.002;5.468;2022-09-30T03:58:07;100839.69;;;5.51;87.86
73341;BME280;61578;52.002;5.468;2022-09-30T03:58:43;100866.22;;;5.67;88.10
73341;BME280;61578;52.002;5.468;2022-09-30T03:59:24;100862.22;;;5.58;87.59
73341;BME280;61578;52.002;5.468;2022-09-30T03:59:58;100852.94;;;5.49;87.73
73341;BME280;61578;52.002;5.468;2022-09-30T04:00:29;100866.34;;;5.64;87.43
73341;BME280;61578;52.002;5.468;2022-09-30T04:01:02;100869.31;;;5.56;87.76
73341;BME280;61578;52.002;5.468;2022-09-30T04:01:33;100879.59;;;5.62;88.22
73341;BME280;61578;52.002;5.468;2022-09-30T04:02:03;100874.31;;;5.62;88.08
73341;BME280;61578;52.002;5.468;2022-09-30T04:02:36;100864.97;;;5.55;88.29
73341;BME280;61578;52.002;5.468;2022-09-30T04:03:07;100842.72;;;5.42;88.54
73341;BME280;61578;52.002;5.468;2022-09-30T04:03:37;100821.34;;;5.29;88.38
73341;BME280;61578;52.002;5.468;2022-09-30T04:04:08;100830.69;;;5.36;88.32
73341;BME280;61578;52.002;5.468;2022-09-30T04:04:39;100887.50;;;5.62;88.30
73341;BME280;61578;52.002;5.468;2022-09-30T04:05:11;100863.38;;;5.51;87.88
73341;BME280;61578;52.002;5.468;2022-09-30T04:05:42;100884.91;;;5.61;87.79
73341;BME280;61578;52.002;5.468;2022-09-30T04:06:13;100882.28;;;5.61;87.51
73341;BME280;61578;52.002;5.468;2022-09-30T04:06:45;100865.97;;;5.52;87.61
73341;BME280;61578;52.002;5.468;2022-09-30T04:07:16;100883.28;;;5.58;87.87
73341;BME280;61578;52.002;5.468;2022-09-30T04:07:47;100876.31;;;5.57;87.93
73341;BME280;61578;52.002;5.468;2022-09-30T04:08:20;100883.41;;;5.55;87.60
73341;BME280;61578;52.002;5.468;2022-09-30T04:08:52;100886.97;;;5.54;87.38
73341;BME280;61578;52.002;5.468;2022-09-30T04:09:25;100881.75;;;5.52;87.76
73341;BME280;61578;52.002;5.468;2022-09-30T04:09:56;100887.88;;;5.53;87.99
73341;BME280;61578;52.002;5.468;2022-09-30T04:10:27;100881.75;;;5.52;88.41
73341;BME280;61578;52.002;5.468;2022-09-30T04:10:58;100885.19;;;5.54;88.08
73341;BME280;61578;52.002;5.468;2022-09-30T04:11:28;100883.41;;;5.55;88.07
73341;BME280;61578;52.002;5.468;2022-09-30T04:11:59;100865.56;;;5.41;87.97
73341;BME280;61578;52.002;5.468;2022-09-30T04:12:30;100884.41;;;5.52;87.81
73341;BME280;61578;52.002;5.468;2022-09-30T04:13:02;100885.25;;;5.53;88.11
73341;BME280;61578;52.002;5.468;2022-09-30T04:13:33;100814.34;;;5.08;87.93
73341;BME280;61578;52.002;5.468;2022-09-30T04:14:04;100889.59;;;5.54;88.14
73341;BME280;61578;52.002;5.468;2022-09-30T04:14:35;100886.91;;;5.55;87.95
73341;BME280;61578;52.002;5.468;2022-09-30T04:15:06;100882.50;;;5.56;88.26
73341;BME280;61578;52.002;5.468;2022-09-30T04:15:37;100871.56;;;5.45;88.39
73341;BME280;61578;52.002;5.468;2022-09-30T04:16:09;100827.06;;;5.18;87.75
73341;BME280;61578;52.002;5.468;2022-09-30T04:16:40;100825.03;;;5.25;88.05
73341;BME280;61578;52.002;5.468;2022-09-30T04:17:12;100886.78;;;5.59;88.36
73341;BME280;61578;52.002;5.468;2022-09-30T04:17:42;100881.56;;;5.57;87.99
73341;BME280;61578;52.002;5.468;2022-09-30T04:18:13;100876.25;;;5.59;88.74
73341;BME280;61578;52.002;5.468;2022-09-30T04:18:44;100875.34;;;5.60;88.61
73341;BME280;61578;52.002;5.468;2022-09-30T04:19:14;100876.16;;;5.60;88.48
73341;BME280;61578;52.002;5.468;2022-09-30T04:19:45;100883.06;;;5.63;88.18
73341;BME280;61578;52.002;5.468;2022-09-30T04:20:16;100878.72;;;5.62;88.43
73341;BME280;61578;52.002;5.468;2022-09-30T04:20:46;100872.41;;;5.66;88.67